createdAt,value
2019-02-27T00:00:00.636Z,7.85
2019-02-27T00:01:31.627Z,7.42
2019-02-27T00:02:57.319Z,8.45
2019-02-27T00:04:22.698Z,6.97
2019-02-27T00:05:48.412Z,6.40
2019-02-27T00:07:13.802Z,7.00
2019-02-27T00:08:39.204Z,7.62
2019-02-27T00:10:06.175Z,7.60
2019-02-27T00:11:32.160Z,7.33
2019-02-27T00:12:57.621Z,7.70
2019-02-27T00:14:23.039Z,7.87
2019-02-27T00:15:48.499Z,7.90
2019-02-27T00:17:15.095Z,8.13
2019-02-27T00:18:41.047Z,8.15
2019-02-27T00:20:06.949Z,7.47
2019-02-27T00:21:32.443Z,6.72
2019-02-27T00:22:57.870Z,7.90
2019-02-27T00:24:23.346Z,6.95
2019-02-27T00:25:48.811Z,7.60
2019-02-27T00:27:14.743Z,7.17
2019-02-27T00:28:40.687Z,7.17
2019-02-27T00:30:06.584Z,6.37
2019-02-27T00:31:32.069Z,6.75
2019-02-27T00:32:57.566Z,5.78
2019-02-27T00:34:22.949Z,7.40
2019-02-27T00:35:48.419Z,6.17
2019-02-27T00:37:13.853Z,6.53
2019-02-27T00:38:39.273Z,7.28
2019-02-27T00:40:05.610Z,5.80
2019-02-27T00:41:31.640Z,6.58
2019-02-27T00:42:57.088Z,6.00
2019-02-27T00:44:22.498Z,5.72
2019-02-27T00:45:47.920Z,5.58
2019-02-27T00:47:13.385Z,5.97
2019-02-27T00:48:38.803Z,5.83
2019-02-27T00:50:06.597Z,6.33
2019-02-27T00:51:31.487Z,6.10
2019-02-27T00:52:56.970Z,4.97
2019-02-27T00:54:22.402Z,5.62
2019-02-27T00:55:47.804Z,5.75
2019-02-27T00:57:15.115Z,5.55
2019-02-27T00:58:40.315Z,5.65
2019-02-27T01:00:07.636Z,5.62
2019-02-27T01:01:33.089Z,5.45
2019-02-27T01:02:58.638Z,5.65
2019-02-27T01:04:24.098Z,6.05
2019-02-27T01:05:49.546Z,6.42
2019-02-27T01:07:20.277Z,5.03
2019-02-27T01:08:43.769Z,5.83
2019-02-27T01:10:11.991Z,5.28
2019-02-27T01:11:36.866Z,4.72
2019-02-27T01:13:02.365Z,5.15
2019-02-27T01:14:27.827Z,5.47
2019-02-27T01:15:53.293Z,5.05
2019-02-27T01:17:20.939Z,5.85
2019-02-27T01:18:45.798Z,5.10
2019-02-27T01:20:12.040Z,5.40
2019-02-27T01:21:37.530Z,4.80
2019-02-27T01:23:02.997Z,5.20
2019-02-27T01:24:28.456Z,4.83
2019-02-27T01:25:56.126Z,4.80
2019-02-27T01:27:20.940Z,4.80
2019-02-27T01:28:46.347Z,5.20
2019-02-27T01:30:13.016Z,5.35
2019-02-27T01:31:38.494Z,4.37
2019-02-27T01:33:04.787Z,4.95
2019-02-27T01:34:30.367Z,5.15
2019-02-27T01:35:55.807Z,4.15
2019-02-27T01:37:21.408Z,4.83
2019-02-27T01:38:47.008Z,5.70
2019-02-27T01:40:17.149Z,4.95
2019-02-27T01:41:40.566Z,4.80
2019-02-27T01:43:06.511Z,6.12
2019-02-27T01:44:32.019Z,5.62
2019-02-27T01:45:57.397Z,6.50
2019-02-27T01:47:24.345Z,5.62
2019-02-27T01:48:49.799Z,5.30
2019-02-27T01:50:34.924Z,4.45
2019-02-27T01:52:02.061Z,4.40
2019-02-27T01:53:27.732Z,4.92
2019-02-27T01:54:53.237Z,6.10
2019-02-27T01:56:18.678Z,5.58
2019-02-27T01:57:44.114Z,3.90
2019-02-27T01:59:09.558Z,4.55
2019-02-27T02:00:35.248Z,4.12
2019-02-27T02:02:01.104Z,4.67
2019-02-27T02:03:27.770Z,5.10
2019-02-27T02:04:53.885Z,4.15
2019-02-27T02:06:19.305Z,5.37
2019-02-27T02:07:47.638Z,3.47
2019-02-27T02:09:34.094Z,3.70
2019-02-27T02:11:01.376Z,4.58
2019-02-27T02:12:29.877Z,3.90
2019-02-27T02:14:28.555Z,3.25
2019-02-27T02:16:14.795Z,4.90
2019-02-27T02:18:22.288Z,4.67
2019-02-27T02:20:32.474Z,5.15
2019-02-27T02:22:45.851Z,3.85
2019-02-27T02:24:51.910Z,5.28
2019-02-27T02:26:59.527Z,4.35
2019-02-27T02:28:56.590Z,4.80
2019-02-27T02:30:51.690Z,3.40
2019-02-27T02:32:39.906Z,3.87
2019-02-27T02:34:41.021Z,3.05
2019-02-27T02:36:25.027Z,4.00
2019-02-27T02:38:26.037Z,4.00
2019-02-27T02:40:12.063Z,3.20
2019-02-27T02:42:14.398Z,3.95
2019-02-27T02:44:11.212Z,3.40
2019-02-27T02:46:08.512Z,3.47
2019-02-27T02:48:03.835Z,3.35
2019-02-27T02:49:55.802Z,3.02
2019-02-27T02:51:50.091Z,3.33
2019-02-27T02:53:35.173Z,3.25
2019-02-27T02:55:47.479Z,2.80
2019-02-27T02:58:01.493Z,3.42
2019-02-27T02:59:49.509Z,3.50
2019-02-27T03:01:41.697Z,3.15
2019-02-27T03:03:36.138Z,3.08
2019-02-27T03:05:43.897Z,4.37
2019-02-27T03:07:45.881Z,3.30
2019-02-27T03:09:18.973Z,3.27
2019-02-27T03:11:09.390Z,3.50
2019-02-27T03:13:06.003Z,3.33
2019-02-27T03:15:02.152Z,3.17
2019-02-27T03:16:59.932Z,3.02
2019-02-27T03:19:09.108Z,3.08
2019-02-27T03:20:44.346Z,3.10
2019-02-27T03:22:16.237Z,3.55
2019-02-27T03:24:46.576Z,3.22
2019-02-27T03:26:18.856Z,3.02
2019-02-27T03:28:24.555Z,3.40
2019-02-27T03:30:36.247Z,2.90
2019-02-27T03:32:07.674Z,3.47
2019-02-27T03:34:25.557Z,2.95
2019-02-27T03:36:26.843Z,2.95
2019-02-27T03:38:30.220Z,3.27
2019-02-27T03:40:30.705Z,2.95
2019-02-27T03:42:30.855Z,3.20
2019-02-27T03:44:24.617Z,2.95
2019-02-27T03:46:10.876Z,3.20
2019-02-27T03:47:55.747Z,3.65
2019-02-27T03:50:05.431Z,2.87
2019-02-27T03:52:06.796Z,3.42
2019-02-27T03:53:55.963Z,3.95
2019-02-27T03:55:43.598Z,3.27
2019-02-27T03:57:54.849Z,3.65
2019-02-27T04:00:09.540Z,3.62
2019-02-27T04:02:10.811Z,3.30
2019-02-27T04:04:10.857Z,2.85
2019-02-27T04:06:28.943Z,3.05
2019-02-27T04:08:47.156Z,3.12
2019-02-27T04:10:12.586Z,2.90
2019-02-27T04:11:41.563Z,3.60
2019-02-27T04:13:05.085Z,2.85
2019-02-27T04:14:40.424Z,3.00
2019-02-27T04:16:01.727Z,3.52
2019-02-27T04:17:28.931Z,2.80
2019-02-27T04:18:54.336Z,2.95
2019-02-27T04:20:19.770Z,3.00
2019-02-27T04:21:45.188Z,2.67
2019-02-27T04:23:12.439Z,2.65
2019-02-27T04:24:37.711Z,2.80
2019-02-27T04:26:05.790Z,2.80
2019-02-27T04:27:30.287Z,3.33
2019-02-27T04:28:55.730Z,3.17
2019-02-27T04:30:21.151Z,3.50
2019-02-27T04:31:46.620Z,2.90
2019-02-27T04:33:12.055Z,3.25
2019-02-27T04:34:37.532Z,3.05
2019-02-27T04:36:03.067Z,2.70
2019-02-27T04:37:28.475Z,3.00
2019-02-27T04:38:53.889Z,2.90
2019-02-27T04:40:19.351Z,3.30
2019-02-27T04:41:44.746Z,2.45
2019-02-27T04:43:10.259Z,2.70
2019-02-27T04:44:35.963Z,3.05
2019-02-27T04:46:02.756Z,3.95
2019-02-27T04:47:29.061Z,3.15
2019-02-27T04:48:55.251Z,3.15
2019-02-27T04:50:20.692Z,2.98
2019-02-27T04:51:48.000Z,3.33
2019-02-27T04:53:13.184Z,3.50
2019-02-27T04:54:41.270Z,3.70
2019-02-27T04:56:05.700Z,2.50
2019-02-27T04:57:33.712Z,2.83
2019-02-27T04:59:00.475Z,3.00
2019-02-27T05:00:26.231Z,2.92
2019-02-27T05:01:52.290Z,2.90
2019-02-27T05:03:17.755Z,3.20
2019-02-27T05:04:44.535Z,2.77
2019-02-27T05:06:24.551Z,3.37
2019-02-27T05:07:54.286Z,3.30
2019-02-27T05:09:20.597Z,3.15
2019-02-27T05:10:46.134Z,2.67
2019-02-27T05:12:11.575Z,2.90
2019-02-27T05:13:37.015Z,2.65
2019-02-27T05:15:04.253Z,2.80
2019-02-27T05:16:29.540Z,3.20
2019-02-27T05:17:55.751Z,2.50
2019-02-27T05:19:21.750Z,2.90
2019-02-27T05:20:47.205Z,3.15
2019-02-27T05:22:12.619Z,3.27
2019-02-27T05:23:38.075Z,2.90
2019-02-27T05:25:03.533Z,2.90
2019-02-27T05:26:28.974Z,3.25
2019-02-27T05:27:54.406Z,2.87
2019-02-27T05:29:19.890Z,2.75
2019-02-27T05:30:45.915Z,3.65
2019-02-27T05:32:11.399Z,3.62
2019-02-27T05:33:39.719Z,2.95
2019-02-27T05:35:04.192Z,3.92
2019-02-27T05:36:31.744Z,3.60
2019-02-27T05:37:56.766Z,3.35
2019-02-27T05:39:22.241Z,3.25
2019-02-27T05:40:47.812Z,3.75
2019-02-27T05:42:13.273Z,3.87
2019-02-27T05:43:38.712Z,2.95
2019-02-27T05:45:04.345Z,3.70
2019-02-27T05:46:29.793Z,3.92
2019-02-27T05:47:55.211Z,4.10
2019-02-27T05:49:20.638Z,4.35
2019-02-27T05:50:46.065Z,3.90
2019-02-27T05:52:11.871Z,3.77
2019-02-27T05:53:38.547Z,4.70
2019-02-27T05:55:06.525Z,3.40
2019-02-27T05:56:31.163Z,3.80
2019-02-27T05:57:56.625Z,4.95
2019-02-27T05:59:22.074Z,4.08
2019-02-27T06:00:47.576Z,4.53
2019-02-27T06:02:13.033Z,3.25
2019-02-27T06:03:38.558Z,3.35
2019-02-27T06:05:04.055Z,3.58
2019-02-27T06:06:29.483Z,4.42
2019-02-27T06:07:55.146Z,3.62
2019-02-27T06:09:20.581Z,4.70
2019-02-27T06:10:46.000Z,4.33
2019-02-27T06:12:11.451Z,4.15
2019-02-27T06:13:36.895Z,3.52
2019-02-27T06:15:02.411Z,5.10
2019-02-27T06:16:27.809Z,4.05
2019-02-27T06:17:53.255Z,4.40
2019-02-27T06:19:18.698Z,3.37
2019-02-27T06:20:44.170Z,3.95
2019-02-27T06:22:09.630Z,4.58
2019-02-27T06:23:35.320Z,4.33
2019-02-27T06:25:02.182Z,4.42
2019-02-27T06:26:32.173Z,4.05
2019-02-27T06:27:54.695Z,4.22
2019-02-27T06:29:23.379Z,3.83
2019-02-27T06:30:47.227Z,3.67
2019-02-27T06:32:12.940Z,3.35
2019-02-27T06:33:38.362Z,3.02
2019-02-27T06:35:03.922Z,3.67
2019-02-27T06:36:29.444Z,3.65
2019-02-27T06:37:54.845Z,3.37
2019-02-27T06:39:20.278Z,3.45
2019-02-27T06:40:45.755Z,2.90
2019-02-27T06:42:11.213Z,3.33
2019-02-27T06:43:36.704Z,3.50
2019-02-27T06:45:02.163Z,3.92
2019-02-27T06:46:27.618Z,4.03
2019-02-27T06:47:53.022Z,4.22
2019-02-27T06:49:18.458Z,3.75
2019-02-27T06:50:43.901Z,4.28
2019-02-27T06:52:09.869Z,4.65
2019-02-27T06:53:35.394Z,3.83
2019-02-27T06:55:00.942Z,3.60
2019-02-27T06:56:26.426Z,3.55
2019-02-27T06:57:51.873Z,4.80
2019-02-27T06:59:18.055Z,4.62
2019-02-27T07:00:43.766Z,4.35
2019-02-27T07:02:09.189Z,4.60
2019-02-27T07:03:34.664Z,4.95
2019-02-27T07:05:00.293Z,3.98
2019-02-27T07:06:25.771Z,4.35
2019-02-27T07:07:51.370Z,4.72
2019-02-27T07:09:16.803Z,5.10
2019-02-27T07:10:42.247Z,5.20
2019-02-27T07:12:07.774Z,6.22
2019-02-27T07:13:33.153Z,5.47
2019-02-27T07:14:58.729Z,5.35
2019-02-27T07:16:24.245Z,5.10
2019-02-27T07:17:49.825Z,5.10
2019-02-27T07:19:15.758Z,5.00
2019-02-27T07:20:41.876Z,5.17
2019-02-27T07:22:09.203Z,4.83
2019-02-27T07:23:35.303Z,4.67
2019-02-27T07:25:00.812Z,4.62
2019-02-27T07:26:26.418Z,4.53
2019-02-27T07:27:51.882Z,4.80
2019-02-27T07:29:21.658Z,4.20
2019-02-27T07:30:44.390Z,3.77
2019-02-27T07:32:09.859Z,4.72
2019-02-27T07:33:35.242Z,6.20
2019-02-27T07:35:00.713Z,5.78
2019-02-27T07:36:26.300Z,5.83
2019-02-27T07:37:51.839Z,6.10
2019-02-27T07:39:17.217Z,6.45
2019-02-27T07:40:43.524Z,6.67
2019-02-27T07:42:09.072Z,6.10
2019-02-27T07:43:34.952Z,6.53
2019-02-27T07:45:00.349Z,6.25
2019-02-27T07:46:25.764Z,5.45
2019-02-27T07:47:51.321Z,6.50
2019-02-27T07:49:16.764Z,6.33
2019-02-27T07:50:42.230Z,6.00
2019-02-27T07:52:07.666Z,6.00
2019-02-27T07:53:33.149Z,6.08
2019-02-27T07:54:58.631Z,6.15
2019-02-27T07:56:24.066Z,6.35
2019-02-27T07:57:49.555Z,6.08
2019-02-27T07:59:14.982Z,6.03
2019-02-27T08:00:42.714Z,6.40
2019-02-27T08:02:07.584Z,6.22
2019-02-27T08:03:33.037Z,6.85
2019-02-27T08:04:58.488Z,4.87
2019-02-27T08:06:24.036Z,6.22
2019-02-27T08:07:49.951Z,7.20
2019-02-27T08:09:15.542Z,6.50
2019-02-27T08:10:41.077Z,6.80
2019-02-27T08:12:06.685Z,7.00
2019-02-27T08:13:32.123Z,7.72
2019-02-27T08:14:57.615Z,7.72
2019-02-27T08:16:23.066Z,8.85
2019-02-27T08:17:48.951Z,7.87
2019-02-27T08:19:14.322Z,7.58
2019-02-27T08:20:39.778Z,7.37
2019-02-27T08:22:05.327Z,6.35
2019-02-27T08:23:30.783Z,7.87
2019-02-27T08:24:56.210Z,7.05
2019-02-27T08:26:21.621Z,7.03
2019-02-27T08:27:47.302Z,7.03
2019-02-27T08:29:12.767Z,7.45
2019-02-27T08:30:38.687Z,7.05
2019-02-27T08:32:05.504Z,6.40
2019-02-27T08:33:31.199Z,5.90
2019-02-27T08:34:56.642Z,7.12
2019-02-27T08:36:22.090Z,5.85
2019-02-27T08:37:47.754Z,5.58
2019-02-27T08:39:13.280Z,5.33
2019-02-27T08:40:38.785Z,5.50
2019-02-27T08:42:07.210Z,5.60
2019-02-27T08:43:32.696Z,6.83
2019-02-27T08:44:58.377Z,6.15
2019-02-27T08:46:23.823Z,5.40
2019-02-27T08:47:49.979Z,6.35
2019-02-27T08:49:15.455Z,6.72
2019-02-27T08:50:40.909Z,5.83
2019-02-27T08:52:08.373Z,6.20
2019-02-27T08:53:34.535Z,6.42
2019-02-27T08:55:05.606Z,6.50
2019-02-27T08:56:31.044Z,5.90
2019-02-27T08:57:57.171Z,5.80
2019-02-27T08:59:22.683Z,6.78
2019-02-27T09:00:48.635Z,7.05
2019-02-27T09:02:15.091Z,6.60
2019-02-27T09:03:40.624Z,5.80
2019-02-27T09:05:06.522Z,5.50
2019-02-27T09:06:32.481Z,6.12
2019-02-27T09:07:57.903Z,6.20
2019-02-27T09:09:23.398Z,6.95
2019-02-27T09:10:48.879Z,6.53
2019-02-27T09:12:14.458Z,6.85
2019-02-27T09:13:41.574Z,6.58
2019-02-27T09:15:08.762Z,6.78
2019-02-27T09:16:34.376Z,7.50
2019-02-27T09:18:01.782Z,7.12
2019-02-27T09:19:32.013Z,7.25
2019-02-27T09:20:58.455Z,6.90
2019-02-27T09:22:24.327Z,6.72
2019-02-27T09:23:49.785Z,6.53
2019-02-27T09:25:15.684Z,7.08
2019-02-27T09:26:42.341Z,6.80
2019-02-27T09:28:09.261Z,6.35
2019-02-27T09:29:35.023Z,5.17
2019-02-27T09:31:04.244Z,5.12
2019-02-27T09:32:28.132Z,5.90
2019-02-27T09:33:53.995Z,5.87
2019-02-27T09:35:19.481Z,5.62
2019-02-27T09:36:44.916Z,5.72
2019-02-27T09:38:10.393Z,7.15
2019-02-27T09:39:36.022Z,6.58
2019-02-27T09:41:01.483Z,6.42
2019-02-27T09:42:26.962Z,8.05
2019-02-27T09:43:52.476Z,8.60
2019-02-27T09:45:21.265Z,6.80
2019-02-27T09:46:46.669Z,6.45
2019-02-27T09:48:12.105Z,6.83
2019-02-27T09:49:37.959Z,6.47
2019-02-27T09:51:05.004Z,5.80
2019-02-27T09:52:30.831Z,6.10
2019-02-27T09:53:56.359Z,6.50
2019-02-27T09:55:21.893Z,6.10
2019-02-27T09:56:47.338Z,6.15
2019-02-27T09:58:13.146Z,5.83
2019-02-27T09:59:39.993Z,6.50
2019-02-27T10:01:16.453Z,5.97
2019-02-27T10:02:43.149Z,7.65
2019-02-27T10:04:09.673Z,5.97
2019-02-27T10:05:36.743Z,7.22
2019-02-27T10:07:02.664Z,7.33
2019-02-27T10:08:28.200Z,6.37
2019-02-27T10:09:53.658Z,5.65
2019-02-27T10:11:22.118Z,6.28
2019-02-27T10:12:46.234Z,6.80
2019-02-27T10:14:14.147Z,5.90
2019-02-27T10:15:38.846Z,5.70
2019-02-27T10:17:06.808Z,6.22
2019-02-27T10:18:31.492Z,5.63
2019-02-27T10:20:01.408Z,5.58
2019-02-27T10:21:24.078Z,5.58
2019-02-27T10:22:49.590Z,5.03
2019-02-27T10:24:15.079Z,5.25
2019-02-27T10:25:43.274Z,5.55
2019-02-27T10:27:07.619Z,6.00
2019-02-27T10:28:35.809Z,5.47
2019-02-27T10:30:00.222Z,6.70
2019-02-27T10:31:26.220Z,5.37
2019-02-27T10:32:52.396Z,6.20
2019-02-27T10:34:18.315Z,6.25
2019-02-27T10:35:43.759Z,6.05
2019-02-27T10:37:12.849Z,5.28
2019-02-27T10:38:40.252Z,5.97
2019-02-27T10:40:03.491Z,6.78
2019-02-27T10:41:32.113Z,6.55
2019-02-27T10:43:09.060Z,6.85
2019-02-27T10:44:33.799Z,5.85
2019-02-27T10:46:00.400Z,5.90
2019-02-27T10:47:26.480Z,6.80
2019-02-27T10:48:51.966Z,5.83
2019-02-27T10:50:17.519Z,6.90
2019-02-27T10:51:43.770Z,6.78
2019-02-27T10:53:09.800Z,6.78
2019-02-27T10:54:37.033Z,6.17
2019-02-27T10:56:02.678Z,6.62
2019-02-27T10:57:31.490Z,6.65
2019-02-27T10:58:55.426Z,7.10
2019-02-27T11:00:27.820Z,6.03
2019-02-27T11:01:53.365Z,6.22
2019-02-27T11:03:19.203Z,7.83
2019-02-27T11:04:45.690Z,7.60
2019-02-27T11:06:13.544Z,7.50
2019-02-27T11:07:39.357Z,6.12
2019-02-27T11:09:06.849Z,7.17
2019-02-27T11:10:32.610Z,6.67
2019-02-27T11:11:58.575Z,6.40
2019-02-27T11:13:24.164Z,6.12
2019-02-27T11:14:53.144Z,6.00
2019-02-27T11:16:21.237Z,6.00
2019-02-27T11:17:45.865Z,7.17
2019-02-27T11:19:14.104Z,6.47
2019-02-27T11:20:38.615Z,5.83
2019-02-27T11:22:04.142Z,6.60
2019-02-27T11:23:29.610Z,7.33
2019-02-27T11:24:55.355Z,5.92
2019-02-27T11:26:21.713Z,6.25
2019-02-27T11:27:47.763Z,7.45
2019-02-27T11:29:17.612Z,7.10
2019-02-27T11:30:51.136Z,6.87
2019-02-27T11:32:16.816Z,6.10
2019-02-27T11:33:46.336Z,7.50
2019-02-27T11:35:12.104Z,8.18
2019-02-27T11:36:39.673Z,6.90
2019-02-27T11:38:08.571Z,6.65
2019-02-27T11:39:34.092Z,6.90
2019-02-27T11:41:00.751Z,6.83
2019-02-27T11:42:28.965Z,7.17
2019-02-27T11:43:56.972Z,7.53
2019-02-27T11:45:25.423Z,6.50
2019-02-27T11:46:58.702Z,6.03
2019-02-27T11:48:20.361Z,6.67
2019-02-27T11:49:45.763Z,6.00
2019-02-27T11:51:11.328Z,5.70
2019-02-27T11:52:48.773Z,6.22
2019-02-27T11:54:15.810Z,5.83
2019-02-27T11:55:41.390Z,5.92
2019-02-27T11:57:08.875Z,6.28
2019-02-27T11:58:35.227Z,5.07
2019-02-27T12:00:01.403Z,5.37
2019-02-27T12:01:27.410Z,4.62
2019-02-27T12:02:52.987Z,5.58
2019-02-27T12:04:19.563Z,5.60
2019-02-27T12:05:45.805Z,5.25
2019-02-27T12:07:17.231Z,5.20
2019-02-27T12:08:40.871Z,5.40
2019-02-27T12:10:08.952Z,5.30
2019-02-27T12:11:34.972Z,5.10
2019-02-27T12:13:01.314Z,5.35
2019-02-27T12:14:27.491Z,5.22
2019-02-27T12:15:53.166Z,6.00
2019-02-27T12:17:19.075Z,5.90
2019-02-27T12:18:44.831Z,6.65
2019-02-27T12:20:11.219Z,5.83
2019-02-27T12:21:36.654Z,7.92
2019-02-27T12:23:02.633Z,6.10
2019-02-27T12:24:28.503Z,7.57
2019-02-27T12:25:53.978Z,6.10
2019-02-27T12:27:37.798Z,6.30
2019-02-27T12:28:47.621Z,5.58
2019-02-27T12:30:18.817Z,6.50
2019-02-27T12:31:47.899Z,5.42
2019-02-27T12:33:11.829Z,6.00
2019-02-27T12:34:37.807Z,6.47
2019-02-27T12:36:03.442Z,5.25
2019-02-27T12:37:34.065Z,4.70
2019-02-27T12:38:55.942Z,5.30
2019-02-27T12:40:25.015Z,5.42
2019-02-27T12:41:55.762Z,5.40
2019-02-27T12:43:21.554Z,5.40
2019-02-27T12:44:46.961Z,5.00
2019-02-27T12:46:16.088Z,5.87
2019-02-27T12:47:44.650Z,5.80
2019-02-27T12:49:12.352Z,5.60
2019-02-27T12:50:37.846Z,5.00
2019-02-27T12:52:03.298Z,5.33
2019-02-27T12:53:28.967Z,5.40
2019-02-27T12:54:54.353Z,5.00
2019-02-27T12:56:19.828Z,4.55
2019-02-27T12:57:45.394Z,4.45
2019-02-27T12:59:11.116Z,5.90
2019-02-27T13:00:37.054Z,5.12
2019-02-27T13:02:08.355Z,4.58
2019-02-27T13:03:29.737Z,5.25
2019-02-27T13:04:55.141Z,5.37
2019-02-27T13:06:20.811Z,5.45
2019-02-27T13:07:46.507Z,5.58
2019-02-27T13:09:14.292Z,5.72
2019-02-27T13:10:40.039Z,4.90
2019-02-27T13:12:05.502Z,5.05
2019-02-27T13:13:31.036Z,5.55
2019-02-27T13:14:56.570Z,5.28
2019-02-27T13:16:22.091Z,4.85
2019-02-27T13:17:47.622Z,5.47
2019-02-27T13:19:13.055Z,4.45
2019-02-27T13:20:38.598Z,5.47
2019-02-27T13:22:07.241Z,3.92
2019-02-27T13:23:32.802Z,4.60
2019-02-27T13:24:58.235Z,4.35
2019-02-27T13:26:25.350Z,5.15
2019-02-27T13:27:50.787Z,4.25
2019-02-27T13:29:16.212Z,5.58
2019-02-27T13:30:42.176Z,5.47
2019-02-27T13:32:07.739Z,5.90
2019-02-27T13:33:35.818Z,4.28
2019-02-27T13:35:00.446Z,4.90
2019-02-27T13:36:25.888Z,5.60
2019-02-27T13:37:51.398Z,4.97
2019-02-27T13:39:16.867Z,5.80
2019-02-27T13:40:42.422Z,5.47
2019-02-27T13:42:07.945Z,5.83
2019-02-27T13:43:33.666Z,5.10
2019-02-27T13:44:59.087Z,4.80
2019-02-27T13:46:24.583Z,5.25
2019-02-27T13:47:50.262Z,5.65
2019-02-27T13:49:15.792Z,4.83
2019-02-27T13:50:42.665Z,4.67
2019-02-27T13:52:12.327Z,5.20
2019-02-27T13:53:35.191Z,4.50
2019-02-27T13:55:02.047Z,5.10
2019-02-27T13:56:28.130Z,5.45
2019-02-27T13:57:59.273Z,4.37
2019-02-27T13:59:23.954Z,4.42
2019-02-27T14:00:53.513Z,6.28
2019-02-27T14:02:16.940Z,5.47
2019-02-27T14:03:45.641Z,5.25
2019-02-27T14:05:10.176Z,4.90
2019-02-27T14:06:42.954Z,4.90
2019-02-27T14:08:06.178Z,4.12
2019-02-27T14:09:31.815Z,4.60
2019-02-27T14:10:57.625Z,4.62
2019-02-27T14:12:23.045Z,5.15
2019-02-27T14:13:50.086Z,4.40
2019-02-27T14:15:15.996Z,4.70
2019-02-27T14:16:44.472Z,5.50
2019-02-27T14:18:13.363Z,4.50
2019-02-27T14:19:38.334Z,6.45
2019-02-27T14:21:06.515Z,5.42
2019-02-27T14:22:41.942Z,4.60
2019-02-27T14:24:09.632Z,4.00
2019-02-27T14:25:35.455Z,5.37
2019-02-27T14:27:00.958Z,4.87
2019-02-27T14:28:26.442Z,5.08
2019-02-27T14:29:52.009Z,4.65
2019-02-27T14:31:17.461Z,4.58
2019-02-27T14:32:45.044Z,4.78
2019-02-27T14:34:09.963Z,5.47
2019-02-27T14:35:36.445Z,5.35
2019-02-27T14:37:02.119Z,6.28
2019-02-27T14:38:29.245Z,5.80
2019-02-27T14:39:54.807Z,5.70
2019-02-27T14:41:23.087Z,5.67
2019-02-27T14:42:53.821Z,6.08
2019-02-27T14:44:16.767Z,4.67
2019-02-27T14:45:42.655Z,4.85
2019-02-27T14:47:08.177Z,4.53
2019-02-27T14:48:33.650Z,6.25
2019-02-27T14:50:00.159Z,5.53
2019-02-27T14:51:26.025Z,5.90
2019-02-27T14:52:51.975Z,6.05
2019-02-27T14:54:17.494Z,5.10
2019-02-27T14:55:43.139Z,5.42
2019-02-27T14:57:08.682Z,4.92
2019-02-27T14:58:34.122Z,5.45
2019-02-27T15:00:02.315Z,4.55
2019-02-27T15:01:28.972Z,5.58
2019-02-27T15:02:55.646Z,5.80
2019-02-27T15:04:21.640Z,8.25
2019-02-27T15:05:48.262Z,5.08
2019-02-27T15:07:13.778Z,6.08
2019-02-27T15:08:39.323Z,6.08
2019-02-27T15:10:07.264Z,4.90
2019-02-27T15:11:32.234Z,5.37
2019-02-27T15:12:57.778Z,4.83
2019-02-27T15:14:24.446Z,5.05
2019-02-27T15:15:50.003Z,5.42
2019-02-27T15:17:15.466Z,5.33
2019-02-27T15:18:40.950Z,4.97
2019-02-27T15:20:06.856Z,4.87
2019-02-27T15:21:32.688Z,4.80
2019-02-27T15:22:58.496Z,5.58
2019-02-27T15:24:23.954Z,5.55
2019-02-27T15:25:49.491Z,4.87
2019-02-27T15:27:14.945Z,5.65
2019-02-27T15:28:41.712Z,5.40
2019-02-27T15:30:08.145Z,5.85
2019-02-27T15:31:33.672Z,5.62
2019-02-27T15:33:03.824Z,5.20
2019-02-27T15:34:27.245Z,4.50
2019-02-27T15:35:55.289Z,4.90
2019-02-27T15:37:19.794Z,4.70
2019-02-27T15:38:46.025Z,5.87
2019-02-27T15:40:14.276Z,5.50
2019-02-27T15:41:39.912Z,5.42
2019-02-27T15:43:11.335Z,5.12
2019-02-27T15:44:34.521Z,5.28
2019-02-27T15:45:59.681Z,5.95
2019-02-27T15:47:27.006Z,5.78
2019-02-27T15:48:52.244Z,5.03
2019-02-27T15:50:22.558Z,5.85
2019-02-27T15:51:46.180Z,6.05
2019-02-27T15:53:14.522Z,5.60
2019-02-27T15:54:39.406Z,5.17
2019-02-27T15:56:05.419Z,5.72
2019-02-27T15:57:32.381Z,5.40
2019-02-27T15:58:59.372Z,5.67
2019-02-27T16:00:25.269Z,5.95
2019-02-27T16:01:54.147Z,5.45
2019-02-27T16:03:19.593Z,6.25
2019-02-27T16:04:45.106Z,5.37
2019-02-27T16:06:16.012Z,4.83
2019-02-27T16:07:51.866Z,5.83
2019-02-27T16:09:17.430Z,4.62
2019-02-27T16:10:54.928Z,5.45
2019-02-27T16:12:25.945Z,5.12
2019-02-27T16:13:52.160Z,6.40
2019-02-27T16:15:18.090Z,5.55
2019-02-27T16:16:43.927Z,5.58
2019-02-27T16:18:09.352Z,5.60
2019-02-27T16:19:34.775Z,5.70
2019-02-27T16:21:00.399Z,4.92
2019-02-27T16:22:28.460Z,6.12
2019-02-27T16:23:53.226Z,5.72
2019-02-27T16:25:20.233Z,5.70
2019-02-27T16:26:47.657Z,5.12
2019-02-27T16:28:16.416Z,5.67
2019-02-27T16:29:40.197Z,5.45
2019-02-27T16:31:06.251Z,5.72
2019-02-27T16:32:32.843Z,5.90
2019-02-27T16:33:58.539Z,6.42
2019-02-27T16:35:24.973Z,6.62
2019-02-27T16:36:50.841Z,7.40
2019-02-27T16:38:16.225Z,6.92
2019-02-27T16:39:45.491Z,6.90
2019-02-27T16:41:08.970Z,7.70
2019-02-27T16:42:36.417Z,8.40
2019-02-27T16:44:01.540Z,7.58
2019-02-27T16:45:32.343Z,7.50
2019-02-27T16:46:55.766Z,7.45
2019-02-27T16:48:21.224Z,7.50
2019-02-27T16:49:50.567Z,7.55
2019-02-27T16:51:14.394Z,8.33
2019-02-27T16:52:42.045Z,7.15
2019-02-27T16:54:06.920Z,7.20
2019-02-27T16:55:35.998Z,8.10
2019-02-27T16:56:59.415Z,6.65
2019-02-27T16:58:24.865Z,7.50
2019-02-27T16:59:50.307Z,6.65
2019-02-27T17:01:15.943Z,8.05
2019-02-27T17:02:41.426Z,7.75
2019-02-27T17:04:06.993Z,6.22
2019-02-27T17:05:32.486Z,8.10
2019-02-27T17:06:58.000Z,6.42
2019-02-27T17:08:23.446Z,6.72
2019-02-27T17:09:49.064Z,6.30
2019-02-27T17:11:14.502Z,6.78
2019-02-27T17:12:40.887Z,5.95
2019-02-27T17:14:06.987Z,5.47
2019-02-27T17:15:35.964Z,6.05
2019-02-27T17:16:59.740Z,5.53
2019-02-27T17:18:28.424Z,5.90
2019-02-27T17:19:53.027Z,5.70
2019-02-27T17:21:22.121Z,5.95
2019-02-27T17:22:46.012Z,6.15
2019-02-27T17:24:11.829Z,6.10
2019-02-27T17:25:37.295Z,6.03
2019-02-27T17:27:02.830Z,6.28
2019-02-27T17:28:28.243Z,5.78
2019-02-27T17:29:59.778Z,6.60
2019-02-27T17:31:22.272Z,6.90
2019-02-27T17:32:51.200Z,6.95
2019-02-27T17:34:16.818Z,6.58
2019-02-27T17:35:42.416Z,6.10
2019-02-27T17:37:08.555Z,6.03
2019-02-27T17:38:34.186Z,6.95
2019-02-27T17:40:02.236Z,5.92
2019-02-27T17:41:29.472Z,6.22
2019-02-27T17:42:55.435Z,6.05
2019-02-27T17:44:20.918Z,7.17
2019-02-27T17:45:47.552Z,7.62
2019-02-27T17:47:13.755Z,6.70
2019-02-27T17:48:39.492Z,7.28
2019-02-27T17:50:05.533Z,7.78
2019-02-27T17:51:31.295Z,6.58
2019-02-27T17:52:57.160Z,7.55
2019-02-27T17:54:23.108Z,7.80
2019-02-27T17:55:51.486Z,7.55
2019-02-27T17:57:17.026Z,7.35
2019-02-27T17:58:43.234Z,7.28
2019-02-27T18:00:12.920Z,6.97
2019-02-27T18:01:39.735Z,7.10
2019-02-27T18:03:07.258Z,7.50
2019-02-27T18:04:32.701Z,7.60
2019-02-27T18:06:00.230Z,9.35
2019-02-27T18:07:34.071Z,6.87
2019-02-27T18:08:52.956Z,6.90
2019-02-27T18:10:18.538Z,8.08
2019-02-27T18:11:45.272Z,8.15
2019-02-27T18:13:11.079Z,7.78
2019-02-27T18:14:37.715Z,7.40
2019-02-27T18:16:03.440Z,7.55
2019-02-27T18:17:29.231Z,7.67
2019-02-27T18:18:56.050Z,7.25
2019-02-27T18:20:25.609Z,7.12
2019-02-27T18:21:49.782Z,7.22
2019-02-27T18:23:15.190Z,8.03
2019-02-27T18:24:43.424Z,7.85
2019-02-27T18:26:08.830Z,7.70
2019-02-27T18:27:34.469Z,7.90
2019-02-27T18:29:07.565Z,7.28
2019-02-27T18:30:37.122Z,8.15
2019-02-27T18:32:07.776Z,8.40
2019-02-27T18:33:43.195Z,7.03
2019-02-27T18:35:09.020Z,8.00
2019-02-27T18:36:42.588Z,9.58
2019-02-27T18:38:01.708Z,9.33
2019-02-27T18:39:27.353Z,9.70
2019-02-27T18:40:52.872Z,9.10
2019-02-27T18:43:17.177Z,10.63
2019-02-27T18:45:17.890Z,9.88
2019-02-27T18:46:45.067Z,8.53
2019-02-27T18:48:11.591Z,8.75
2019-02-27T18:49:37.065Z,11.40
2019-02-27T18:51:02.576Z,9.40
2019-02-27T18:52:28.015Z,9.83
2019-02-27T18:53:53.453Z,10.85
2019-02-27T18:55:19.257Z,10.75
2019-02-27T18:56:50.581Z,9.85
2019-02-27T18:58:20.905Z,8.88
2019-02-27T18:59:53.146Z,10.20
2019-02-27T19:01:19.049Z,10.35
2019-02-27T19:02:52.349Z,11.25
2019-02-27T19:04:20.579Z,9.78
2019-02-27T19:05:49.166Z,11.18
2019-02-27T19:07:20.821Z,12.20
2019-02-27T19:08:51.309Z,13.00
2019-02-27T19:10:18.304Z,12.23
2019-02-27T19:11:55.491Z,13.10
2019-02-27T19:13:33.126Z,12.00
2019-02-27T19:15:11.253Z,13.13
2019-02-27T19:16:35.714Z,10.90
2019-02-27T19:18:06.522Z,11.08
2019-02-27T19:19:35.547Z,10.63
2019-02-27T19:21:01.356Z,13.55
2019-02-27T19:22:28.470Z,12.50
2019-02-27T19:23:54.311Z,13.10
2019-02-27T19:25:19.973Z,11.38
2019-02-27T19:26:46.205Z,13.98
2019-02-27T19:28:12.096Z,13.65
2019-02-27T19:29:37.642Z,14.30
2019-02-27T19:31:03.263Z,15.20
2019-02-27T19:32:28.855Z,15.72
2019-02-27T19:33:54.825Z,13.83
2019-02-27T19:35:22.354Z,13.58
2019-02-27T19:36:47.962Z,13.28
2019-02-27T19:38:13.830Z,11.50
2019-02-27T19:39:44.176Z,11.30
2019-02-27T19:41:10.078Z,10.68